Terminal Aerodrome Forecast
Issued by NWS

Home | Current Version | Previous Version | Text Only | Print | Product List | Glossary On
Versions: 1 2 3 4 5 6 7 8 9 10 11 12
429
FTUS44 KMAF 050520
TAFCNM
TAF
KCNM 050520Z 0506/0606 VRB04KT P6SM SKC
     FM051700 15012G18KT P6SM SKC
     FM060200 14010KT P6SM SKC=

USA.gov is the U.S. government's official web portal to all federal, state and local government web resources and services.